• Join FlightAware (Why Join?)
  • Login
  • US Flag 
02:45AM EST


 

Airport Tracker/Info


-or-


 

Live Flight TrackerFlight Track Log ✈ N214GF ✈ 02-Mar-2014 ✈ KMSN - KPWK

Flight Track Log - Related Links

Times and Time Zones

All times are in EST time to prevent confusion due to time zone crossing. See the N214GF flight status page for this flight to view local times or setup timezone preferences in your user account.

Time Position Orientation Groundspeed Altitude Reporting Facility
EST Latitude Longitude Course Direction KTS MPH feet Rate Location/Type
05:25PM 43.0803 -89.2211 142° Southeast 151 174 5,700  Level Chicago Center
05:26PM 43.0367 -89.1750 142° Southeast 158 182 6,900 600 Climbing Chicago Center
05:27PM 42.9521 -89.1192 139° Southeast  Level FlightAware Approximate
05:27PM 42.9969 -89.1339 143° Southeast 171 197 7,000  Level Chicago Center
05:28PM 42.9137 -89.0803 144° Southeast  Level FlightAware Approximate
05:28PM 42.9519 -89.0903 145° Southeast 189 217 7,000  Level Chicago Center
05:29PM 42.8750 -89.0416 144° Southeast  Level FlightAware Approximate
05:29PM 42.9075 -89.0431 142° Southeast 197 227 7,000  Level Chicago Center
05:30PM 42.8614 -88.9964 143° Southeast 203 234 7,000  Level Chicago Center
05:31PM 42.8175 -88.9508 143° Southeast 201 231 7,000  Level Chicago Center
05:32PM 42.7636 -88.8950 143° Southeast 202 232 7,000  Level Chicago Center
05:33PM 42.7192 -88.8497 143° Southeast 202 232 7,000 -180 Level Chicago Center
05:34PM 42.6747 -88.8031 142° Southeast 202 232 6,700 -360 Descending Chicago Center
05:35PM 42.6278 -88.7572 144° Southeast 206 237 6,300 -360 Descending Chicago Center
05:36PM 42.5817 -88.7092 142° Southeast 208 239 6,000 -180 Descending Chicago Center
05:37PM 42.5378 -88.6633 142° Southeast 203 234 6,000 -120 Level Chicago Center
05:38PM 42.4944 -88.6192 143° Southeast 198 228 5,800 -360 Descending Chicago Center
05:39PM 42.4536 -88.5539 130° Southeast 200 230 5,300 -420 Descending Chicago Center
05:40PM 42.4311 -88.4906 116° Southeast 192 221 5,000 -180 Descending Chicago Center
05:41PM 42.4078 -88.4319 118° Southeast 183 211 5,000 -180 Level Chicago Center
05:42PM 42.3861 -88.3756 117° Southeast 174 200 4,700 -420 Descending Chicago Center
05:43PM 42.3622 -88.3186 120° Southeast 174 200 4,200 -540 Descending Chicago Center
05:44PM 42.3433 -88.2561 112° Southeast 178 205 3,700 -540 Descending Chicago Center
05:45PM 42.3231 -88.1844 111° Southeast 176 203 3,200 -360 Descending Chicago Center
05:47PM 42.3103 -88.1242 106° East 169 194 3,000 -120 Descending Chicago Center
05:48PM 42.3072 -88.0611 94° East 158 182 3,000  Level Chicago Center
05:49PM 42.2878 -88.0094 117° Southeast 166 191 3,000 -300 Level Chicago Center
05:50PM 42.2464 -87.9733 147° Southeast 167 192 2,500 -300 Descending Chicago Center
05:51PM 42.2061 -87.9494 156° South 171 197 2,400 -120 Descending Chicago Center
05:53PM 42.1175 -87.9081 161° South  Level FlightAware Approximate
06:00PM 42.1143 -87.9015 151° Southeast  Level Estimated
06:01PM 42.1143 -87.9015 151° Southeast  Level Estimated